createdAt,value
2022-11-14T00:02:45.413Z,81.35
2022-11-14T00:05:41.623Z,84.43
2022-11-14T00:08:30.294Z,89.95
2022-11-14T00:11:17.018Z,81.40
2022-11-14T00:14:04.258Z,85.35
2022-11-14T00:16:53.252Z,79.82
2022-11-14T00:19:39.926Z,93.68
2022-11-14T00:22:26.819Z,91.57
2022-11-14T00:25:12.903Z,98.25
2022-11-14T00:28:02.114Z,91.05
2022-11-14T00:30:51.303Z,94.05
2022-11-14T00:33:41.417Z,94.10
2022-11-14T00:39:16.071Z,88.68
2022-11-14T00:42:03.170Z,93.80
2022-11-14T00:44:49.331Z,95.63
2022-11-14T00:47:38.385Z,104.13
2022-11-14T00:50:24.979Z,97.78
2022-11-14T00:53:13.810Z,100.20
2022-11-14T00:56:00.070Z,93.57
2022-11-14T00:58:48.978Z,92.55
2022-11-14T01:01:38.161Z,89.47
2022-11-14T01:04:24.982Z,97.53
2022-11-14T01:07:11.252Z,96.40
2022-11-14T01:10:00.219Z,96.40
2022-11-14T01:12:49.330Z,95.43
2022-11-14T01:15:40.185Z,97.57
2022-11-14T01:18:29.156Z,99.93
2022-11-14T01:21:15.897Z,97.60
2022-11-14T01:24:05.098Z,86.50
2022-11-14T01:26:54.461Z,104.78
2022-11-14T01:29:43.288Z,96.70
2022-11-14T01:32:30.589Z,110.45
2022-11-14T01:35:21.179Z,94.13
2022-11-14T01:38:07.538Z,113.32
2022-11-14T01:40:53.946Z,114.18
2022-11-14T01:43:40.546Z,99.95
2022-11-14T01:46:34.194Z,99.03
2022-11-14T01:49:34.529Z,107.30
2022-11-14T01:52:29.104Z,103.20
2022-11-14T01:55:17.683Z,110.15
2022-11-14T01:58:04.751Z,110.80
2022-11-14T02:00:50.793Z,105.03
2022-11-14T02:03:42.900Z,102.07
2022-11-14T02:06:33.765Z,100.18
2022-11-14T02:09:23.455Z,101.60
2022-11-14T02:12:13.743Z,110.65
2022-11-14T02:15:01.162Z,98.50
2022-11-14T02:17:52.430Z,98.72
2022-11-14T02:20:43.392Z,100.50
2022-11-14T02:23:32.402Z,98.20
2022-11-14T02:26:22.274Z,107.75
2022-11-14T02:29:10.949Z,97.53
2022-11-14T02:31:57.751Z,84.97
2022-11-14T02:34:44.065Z,103.80
2022-11-14T02:37:31.101Z,98.38
2022-11-14T02:40:17.826Z,95.07
2022-11-14T02:43:04.137Z,98.95
2022-11-14T02:45:51.071Z,91.68
2022-11-14T02:48:37.365Z,101.20
2022-11-14T02:51:26.549Z,94.07
2022-11-14T02:54:13.189Z,94.47
2022-11-14T02:57:01.438Z,98.78
2022-11-14T02:59:48.033Z,87.15
2022-11-14T03:02:38.935Z,86.75
2022-11-14T03:05:26.080Z,89.05
2022-11-14T03:08:12.889Z,87.45
2022-11-14T03:11:11.597Z,86.70
2022-11-14T03:13:59.206Z,83.47
2022-11-14T03:16:45.776Z,83.28
2022-11-14T03:19:32.453Z,79.82
2022-11-14T03:22:20.818Z,72.53
2022-11-14T03:25:10.322Z,80.78
2022-11-14T03:27:56.550Z,80.15
2022-11-14T03:30:42.929Z,80.78
2022-11-14T03:33:34.719Z,73.47
2022-11-14T03:36:23.996Z,79.55
2022-11-14T03:39:15.404Z,76.28
2022-11-14T03:42:02.009Z,78.75
2022-11-14T03:44:51.551Z,75.50
2022-11-14T03:47:37.835Z,73.80
2022-11-14T03:50:24.813Z,84.18
2022-11-14T03:53:11.940Z,86.13
2022-11-14T03:55:58.195Z,80.53
2022-11-14T03:58:45.019Z,81.95
2022-11-14T04:01:31.682Z,85.68
2022-11-14T04:04:18.307Z,82.57
2022-11-14T04:07:08.052Z,91.18
2022-11-14T04:09:57.779Z,84.43
2022-11-14T04:12:57.055Z,91.70
2022-11-14T04:15:48.309Z,87.22
2022-11-14T04:18:35.746Z,86.50
2022-11-14T04:21:23.039Z,84.82
2022-11-14T04:24:11.793Z,88.43
2022-11-14T04:26:58.363Z,79.93
2022-11-14T04:29:44.788Z,89.25
2022-11-14T04:32:33.941Z,89.80
2022-11-14T04:35:24.169Z,84.18
2022-11-14T04:38:11.500Z,90.47
2022-11-14T04:41:01.007Z,92.60
2022-11-14T04:43:50.852Z,77.63
2022-11-14T04:49:29.847Z,87.47
2022-11-14T04:52:19.657Z,95.07
2022-11-14T04:55:06.068Z,79.75
2022-11-14T04:57:58.708Z,86.70
2022-11-14T05:00:44.805Z,93.55
2022-11-14T05:03:31.476Z,87.97
2022-11-14T05:06:21.070Z,89.18
2022-11-14T05:09:07.695Z,91.30
2022-11-14T05:11:53.963Z,91.47
2022-11-14T05:14:45.443Z,96.57
2022-11-14T05:17:31.632Z,87.10
2022-11-14T05:20:18.311Z,99.13
2022-11-14T05:23:04.939Z,98.43
2022-11-14T05:26:06.358Z,100.97
2022-11-14T05:28:52.443Z,97.47
2022-11-14T05:31:38.642Z,104.43
2022-11-14T05:34:25.358Z,109.28
2022-11-14T05:37:12.461Z,103.60
2022-11-14T05:39:59.462Z,89.30
2022-11-14T05:42:45.704Z,101.65
2022-11-14T05:45:32.207Z,100.65
2022-11-14T05:48:19.306Z,104.35
2022-11-14T05:51:12.784Z,111.38
2022-11-14T05:54:01.778Z,95.15
2022-11-14T05:56:48.336Z,102.93
2022-11-14T05:59:34.444Z,96.97
2022-11-14T06:02:21.645Z,86.82
2022-11-14T06:05:08.610Z,89.50
2022-11-14T06:07:59.253Z,98.57
2022-11-14T06:10:46.330Z,84.20
2022-11-14T06:13:32.950Z,88.70
2022-11-14T06:16:24.554Z,93.80
2022-11-14T06:19:11.672Z,83.40
2022-11-14T06:22:01.348Z,79.45
2022-11-14T06:24:54.746Z,76.40
2022-11-14T06:27:41.636Z,78.55
2022-11-14T06:30:32.565Z,74.63
2022-11-14T06:33:21.477Z,74.13
2022-11-14T06:36:08.628Z,76.75
2022-11-14T06:38:57.792Z,70.63
2022-11-14T06:41:46.267Z,71.18
2022-11-14T06:44:35.622Z,67.63
2022-11-14T06:47:21.687Z,62.15
2022-11-14T06:50:10.929Z,75.72
2022-11-14T06:53:02.609Z,59.65
2022-11-14T06:55:57.564Z,77.65
2022-11-14T06:58:49.344Z,65.88
2022-11-14T07:01:36.768Z,68.07
2022-11-14T07:04:26.207Z,66.72
2022-11-14T07:07:12.414Z,76.32
2022-11-14T07:09:59.155Z,70.35
2022-11-14T07:12:48.240Z,75.20
2022-11-14T07:15:35.160Z,72.93
2022-11-14T07:18:21.463Z,74.90
2022-11-14T07:21:10.215Z,77.55
2022-11-14T07:23:57.595Z,74.30
2022-11-14T07:26:44.026Z,70.38
2022-11-14T07:29:32.789Z,62.55
2022-11-14T07:32:20.081Z,81.32
2022-11-14T07:35:11.510Z,96.32
2022-11-14T07:38:05.267Z,79.28
2022-11-14T07:41:02.332Z,87.05
2022-11-14T07:43:48.740Z,110.30
2022-11-14T07:46:40.798Z,101.57
2022-11-14T07:49:29.402Z,85.45
2022-11-14T07:52:18.509Z,89.63
2022-11-14T07:55:07.435Z,83.95
2022-11-14T07:57:59.165Z,63.85
2022-11-14T08:00:45.623Z,82.43
2022-11-14T08:03:34.687Z,67.20
2022-11-14T08:06:21.135Z,70.97
2022-11-14T08:09:10.066Z,64.20
2022-11-14T08:11:59.666Z,65.40
2022-11-14T08:14:52.929Z,57.28
2022-11-14T08:17:39.501Z,60.08
2022-11-14T08:20:26.924Z,64.35
2022-11-14T08:23:14.027Z,57.28
2022-11-14T08:26:01.136Z,70.03
2022-11-14T08:28:47.726Z,71.40
2022-11-14T08:31:34.190Z,68.03
2022-11-14T08:34:22.554Z,68.20
2022-11-14T08:37:11.325Z,63.53
2022-11-14T08:40:00.603Z,57.72
2022-11-14T08:42:47.546Z,56.58
2022-11-14T08:45:34.251Z,61.50
2022-11-14T08:48:20.292Z,60.70
2022-11-14T08:51:07.240Z,59.70
2022-11-14T08:53:56.541Z,60.05
2022-11-14T08:56:45.446Z,54.22
2022-11-14T08:59:32.796Z,59.05
2022-11-14T09:02:19.340Z,59.40
2022-11-14T09:05:09.196Z,54.35
2022-11-14T09:07:55.797Z,52.17
2022-11-14T09:10:42.169Z,56.47
2022-11-14T09:13:29.436Z,54.50
2022-11-14T09:16:18.215Z,53.22
2022-11-14T09:19:04.724Z,57.05
2022-11-14T09:21:58.277Z,55.08
2022-11-14T09:24:48.239Z,53.63
2022-11-14T09:27:37.638Z,48.85
2022-11-14T09:30:26.558Z,49.35
2022-11-14T09:33:15.459Z,72.93
2022-11-14T09:36:06.999Z,49.38
2022-11-14T09:38:56.160Z,43.83
2022-11-14T09:42:06.528Z,43.65
2022-11-14T09:45:00.372Z,47.80
2022-11-14T09:47:52.980Z,45.88
2022-11-14T09:50:45.233Z,42.58
2022-11-14T09:53:51.511Z,41.88
2022-11-14T09:56:40.478Z,38.25
2022-11-14T09:59:32.092Z,41.47
2022-11-14T10:02:50.730Z,38.72
2022-11-14T10:05:45.823Z,38.25
2022-11-14T10:08:48.112Z,31.50
2022-11-14T10:11:52.669Z,31.25
2022-11-14T10:14:44.500Z,31.83
2022-11-14T10:17:53.284Z,39.47
2022-11-14T10:20:47.516Z,45.17
2022-11-14T10:23:58.437Z,35.85
2022-11-14T10:27:10.866Z,33.30
2022-11-14T10:30:04.579Z,33.65
2022-11-14T10:33:23.233Z,35.88
2022-11-14T10:36:24.666Z,33.65
2022-11-14T10:39:45.167Z,28.70
2022-11-14T10:42:38.576Z,26.95
2022-11-14T10:45:37.211Z,33.67
2022-11-14T10:48:47.256Z,29.98
2022-11-14T10:51:44.913Z,28.63
2022-11-14T10:54:40.207Z,30.75
2022-11-14T10:57:31.030Z,29.30
2022-11-14T11:00:24.884Z,34.92
2022-11-14T11:03:14.749Z,27.65
2022-11-14T11:06:00.952Z,29.10
2022-11-14T11:09:08.559Z,26.65
2022-11-14T11:12:07.911Z,26.65
2022-11-14T11:15:24.448Z,25.20
2022-11-14T11:18:33.660Z,28.02
2022-11-14T11:21:25.511Z,25.48
2022-11-14T11:24:12.897Z,28.67
2022-11-14T11:27:20.922Z,31.40
2022-11-14T11:30:23.435Z,25.75
2022-11-14T11:33:22.892Z,26.63
2022-11-14T11:36:15.840Z,37.05
2022-11-14T11:39:14.134Z,34.60
2022-11-14T11:42:09.895Z,30.33
2022-11-14T11:45:01.862Z,32.88
2022-11-14T11:48:19.473Z,30.52
2022-11-14T11:51:12.030Z,29.55
2022-11-14T11:54:12.512Z,26.38
2022-11-14T11:57:04.768Z,28.42
2022-11-14T12:00:03.944Z,32.22
2022-11-14T12:02:52.575Z,25.20
2022-11-14T12:05:49.212Z,28.27
2022-11-14T12:09:42.609Z,32.72
2022-11-14T12:12:45.877Z,33.05
2022-11-14T12:16:13.040Z,30.60
2022-11-14T12:18:59.981Z,37.00
2022-11-14T12:22:21.526Z,34.15
2022-11-14T12:25:44.519Z,34.45
2022-11-14T12:28:32.620Z,28.88
2022-11-14T12:31:18.881Z,25.23
2022-11-14T12:34:34.625Z,28.92
2022-11-14T12:37:39.703Z,27.55
2022-11-14T12:40:32.732Z,25.48
2022-11-14T12:43:25.069Z,27.75
2022-11-14T12:46:16.183Z,25.60
2022-11-14T12:49:41.789Z,23.98
2022-11-14T12:52:54.536Z,22.58
2022-11-14T12:55:47.038Z,21.02
2022-11-14T12:59:05.484Z,27.35
2022-11-14T13:02:34.856Z,25.40
2022-11-14T13:05:39.389Z,20.90
2022-11-14T13:08:49.119Z,25.20
2022-11-14T13:12:06.273Z,22.02
2022-11-14T13:15:16.240Z,21.63
2022-11-14T13:18:46.947Z,23.58
2022-11-14T13:21:46.319Z,24.08
2022-11-14T13:25:01.393Z,24.45
2022-11-14T13:28:07.238Z,26.52
2022-11-14T13:31:17.768Z,22.90
2022-11-14T13:34:44.826Z,28.83
2022-11-14T13:37:42.544Z,29.20
2022-11-14T13:40:40.672Z,28.00
2022-11-14T13:43:49.569Z,25.27
2022-11-14T13:46:38.869Z,28.33
2022-11-14T13:49:48.909Z,26.70
2022-11-14T13:52:41.789Z,26.23
2022-11-14T13:55:43.144Z,26.73
2022-11-14T13:59:02.782Z,30.23
2022-11-14T14:02:03.724Z,32.38
2022-11-14T14:05:11.194Z,33.30
2022-11-14T14:08:11.082Z,26.38
2022-11-14T14:11:12.202Z,26.77
2022-11-14T14:14:48.516Z,31.13
2022-11-14T14:17:52.969Z,26.88
2022-11-14T14:20:51.820Z,28.30
2022-11-14T14:23:52.787Z,31.42
2022-11-14T14:26:48.074Z,28.15
2022-11-14T14:30:04.606Z,31.08
2022-11-14T14:33:09.151Z,29.98
2022-11-14T14:36:01.277Z,28.17
2022-11-14T14:38:51.013Z,26.27
2022-11-14T14:44:32.355Z,26.67
2022-11-14T14:47:43.444Z,27.55
2022-11-14T14:50:51.603Z,26.42
2022-11-14T14:53:50.854Z,24.38
2022-11-14T14:56:37.148Z,25.88
2022-11-14T14:59:25.940Z,27.35
2022-11-14T15:02:17.332Z,29.23
2022-11-14T15:05:04.046Z,36.42
2022-11-14T15:07:54.243Z,29.77
2022-11-14T15:10:41.628Z,33.08
2022-11-14T15:13:29.515Z,38.40
2022-11-14T15:16:23.806Z,35.03
2022-11-14T15:19:15.136Z,36.30
2022-11-14T15:22:06.219Z,34.25
2022-11-14T15:25:25.733Z,32.55
2022-11-14T15:28:21.959Z,30.33
2022-11-14T15:31:18.138Z,32.83
2022-11-14T15:37:19.280Z,33.38
2022-11-14T15:40:17.663Z,34.83
2022-11-14T15:43:38.839Z,34.90
2022-11-14T15:46:28.601Z,30.98
2022-11-14T15:49:15.319Z,39.72
2022-11-14T15:52:03.046Z,31.30
2022-11-14T15:54:52.043Z,34.53
2022-11-14T15:57:42.007Z,33.35
2022-11-14T16:00:30.190Z,35.22
2022-11-14T16:03:21.900Z,35.55
2022-11-14T16:06:11.634Z,36.42
2022-11-14T16:09:02.930Z,36.88
2022-11-14T16:11:54.179Z,37.95
2022-11-14T16:14:40.433Z,37.75
2022-11-14T16:17:29.882Z,34.83
2022-11-14T16:20:27.412Z,32.22
2022-11-14T16:23:18.722Z,31.85
2022-11-14T16:26:05.816Z,37.00
2022-11-14T16:28:55.286Z,39.90
2022-11-14T16:31:41.907Z,40.67
2022-11-14T16:34:28.698Z,39.97
2022-11-14T16:37:18.469Z,44.70
2022-11-14T16:40:09.104Z,45.28
2022-11-14T16:42:59.228Z,42.85
2022-11-14T16:45:45.930Z,44.38
2022-11-14T16:48:32.504Z,44.10
2022-11-14T16:51:47.088Z,48.58
2022-11-14T16:54:28.393Z,42.47
2022-11-14T16:57:14.743Z,45.65
2022-11-14T17:00:10.888Z,46.42
2022-11-14T17:03:00.790Z,47.45
2022-11-14T17:05:54.508Z,44.35
2022-11-14T17:08:44.267Z,47.83
2022-11-14T17:11:32.791Z,51.78
2022-11-14T17:14:21.287Z,47.75
2022-11-14T17:17:09.903Z,49.28
2022-11-14T17:19:56.045Z,51.92
2022-11-14T17:22:42.244Z,51.30
2022-11-14T17:25:29.950Z,51.40
2022-11-14T17:28:16.584Z,54.58
2022-11-14T17:31:09.548Z,56.58
2022-11-14T17:34:01.174Z,50.20
2022-11-14T17:36:50.376Z,54.67
2022-11-14T17:39:39.429Z,55.30
2022-11-14T17:42:25.454Z,54.67
2022-11-14T17:45:11.667Z,56.45
2022-11-14T17:48:00.075Z,58.63
2022-11-14T17:50:47.104Z,59.95
2022-11-14T17:53:35.075Z,70.43
2022-11-14T17:56:23.870Z,57.42
2022-11-14T17:59:10.434Z,57.10
2022-11-14T18:02:04.154Z,54.80
2022-11-14T18:04:52.979Z,48.67
2022-11-14T18:07:44.346Z,39.72
2022-11-14T18:10:33.474Z,32.17
2022-11-14T18:13:20.460Z,35.25
2022-11-14T18:16:15.771Z,27.48
2022-11-14T18:19:02.733Z,36.45
2022-11-14T18:21:53.965Z,31.10
2022-11-14T18:24:47.494Z,30.52
2022-11-14T18:27:41.449Z,34.83
2022-11-14T18:30:46.542Z,34.22
2022-11-14T18:33:33.287Z,33.13
2022-11-14T18:36:19.947Z,33.00
2022-11-14T18:39:11.222Z,37.70
2022-11-14T18:42:02.598Z,43.15
2022-11-14T18:44:49.508Z,40.70
2022-11-14T18:47:35.762Z,37.17
2022-11-14T18:50:24.091Z,21.13
2022-11-14T18:53:10.851Z,17.67
2022-11-14T18:56:02.257Z,21.50
2022-11-14T18:58:52.175Z,15.60
2022-11-14T19:01:40.637Z,16.27
2022-11-14T19:04:29.728Z,17.13
2022-11-14T19:07:19.045Z,13.35
2022-11-14T19:12:55.185Z,11.38
2022-11-14T19:15:44.353Z,11.20
2022-11-14T19:18:31.801Z,7.03
2022-11-14T19:21:25.852Z,10.93
2022-11-14T19:24:12.557Z,4.57
2022-11-14T19:27:01.773Z,4.07
2022-11-14T19:29:48.411Z,2.58
2022-11-14T19:32:35.859Z,3.20
2022-11-14T19:35:27.427Z,3.55
2022-11-14T19:38:16.745Z,4.13
2022-11-14T19:41:13.214Z,2.40
2022-11-14T19:44:01.487Z,2.42
2022-11-14T19:46:48.313Z,2.33
2022-11-14T19:49:36.567Z,1.38
2022-11-14T19:52:24.938Z,4.00
2022-11-14T19:55:13.470Z,1.75
2022-11-14T19:58:02.216Z,1.27
2022-11-14T20:00:48.294Z,1.95
2022-11-14T20:03:42.057Z,2.42
2022-11-14T20:06:34.373Z,3.47
2022-11-14T20:09:30.913Z,2.15
2022-11-14T20:12:20.379Z,2.22
2022-11-14T20:15:09.799Z,1.80
2022-11-14T20:17:56.017Z,3.88
2022-11-14T20:20:45.567Z,2.40
2022-11-14T20:23:32.708Z,3.60
2022-11-14T20:26:20.043Z,3.03
2022-11-14T20:29:07.270Z,2.38
2022-11-14T20:31:53.925Z,2.80
2022-11-14T20:34:40.384Z,5.90
2022-11-14T20:37:26.441Z,3.00
2022-11-14T20:40:13.529Z,3.95
2022-11-14T20:43:00.435Z,3.47
2022-11-14T20:46:03.909Z,4.20
2022-11-14T20:48:50.689Z,5.40
2022-11-14T20:51:37.286Z,5.28
2022-11-14T20:54:27.100Z,9.93
2022-11-14T21:00:05.223Z,6.75
2022-11-14T21:02:55.008Z,4.97
2022-11-14T21:05:41.332Z,5.07
2022-11-14T21:08:27.913Z,4.88
2022-11-14T21:11:18.363Z,5.05
2022-11-14T21:14:06.098Z,3.20
2022-11-14T21:16:52.829Z,4.55
2022-11-14T21:19:39.710Z,3.38
2022-11-14T21:22:30.588Z,6.93
2022-11-14T21:25:18.971Z,2.20
2022-11-14T21:28:09.992Z,6.43
2022-11-14T21:30:58.612Z,2.80
2022-11-14T21:33:48.214Z,5.35
2022-11-14T21:36:45.842Z,6.53
2022-11-14T21:39:33.012Z,6.63
2022-11-14T21:42:23.788Z,4.35
2022-11-14T21:45:11.739Z,2.50
2022-11-14T21:47:57.914Z,6.95
2022-11-14T21:50:48.722Z,3.88
2022-11-14T21:53:35.695Z,7.28
2022-11-14T21:56:27.706Z,3.80
2022-11-14T21:59:21.599Z,4.75
2022-11-14T22:02:30.968Z,3.03
2022-11-14T22:05:19.964Z,2.55
2022-11-14T22:08:06.374Z,11.38
2022-11-14T22:10:53.140Z,9.75
2022-11-14T22:13:42.521Z,6.43
2022-11-14T22:16:29.256Z,6.03
2022-11-14T22:19:15.513Z,3.28
2022-11-14T22:22:04.523Z,4.93
2022-11-14T22:24:53.795Z,11.75
2022-11-14T22:27:40.001Z,26.90
2022-11-14T22:30:26.108Z,4.82
2022-11-14T22:33:15.360Z,10.38
2022-11-14T22:36:13.384Z,3.70
2022-11-14T22:38:59.675Z,26.30
2022-11-14T22:41:48.902Z,37.25
2022-11-14T22:44:36.499Z,7.20
2022-11-14T22:47:23.129Z,15.43
2022-11-14T22:50:11.785Z,25.23
2022-11-14T22:52:58.715Z,21.73
2022-11-14T22:55:48.751Z,15.05
2022-11-14T22:58:37.223Z,16.05
2022-11-14T23:01:31.840Z,25.17
2022-11-14T23:04:18.527Z,15.32
2022-11-14T23:07:07.948Z,7.68
2022-11-14T23:09:54.466Z,5.97
2022-11-14T23:12:45.312Z,12.32
2022-11-14T23:15:31.851Z,11.38
2022-11-14T23:18:23.502Z,11.35
2022-11-14T23:21:14.388Z,6.65
2022-11-14T23:24:06.444Z,10.68
2022-11-14T23:26:54.404Z,9.57
2022-11-14T23:29:41.205Z,6.28
2022-11-14T23:32:28.448Z,7.68
2022-11-14T23:35:15.299Z,3.05
2022-11-14T23:38:05.654Z,7.82
2022-11-14T23:40:53.538Z,9.35
2022-11-14T23:43:39.904Z,8.75
2022-11-14T23:46:29.354Z,9.45
2022-11-14T23:49:15.638Z,6.72
2022-11-14T23:52:02.010Z,10.82
2022-11-14T23:54:48.468Z,7.20
2022-11-14T23:57:37.216Z,9.63
